createdAt,value
2022-08-12T00:03:56.463Z,3.10
2022-08-12T00:09:17.973Z,3.45
2022-08-12T00:14:44.641Z,3.15
2022-08-12T00:20:06.070Z,3.40
2022-08-12T00:26:05.756Z,3.10
2022-08-12T00:36:35.821Z,2.95
2022-08-12T00:41:58.746Z,3.05
2022-08-12T00:47:03.816Z,2.97
2022-08-12T00:52:07.894Z,2.97
2022-08-12T00:57:12.901Z,3.53
2022-08-12T01:02:25.878Z,3.55
2022-08-12T01:07:48.390Z,3.45
2022-08-12T01:12:52.413Z,3.67
2022-08-12T01:17:57.330Z,3.83
2022-08-12T01:23:19.200Z,3.47
2022-08-12T01:28:25.373Z,3.45
2022-08-12T01:33:35.465Z,3.28
2022-08-12T01:38:41.880Z,2.92
2022-08-12T01:43:47.605Z,3.40
2022-08-12T01:49:02.740Z,2.60
2022-08-12T01:54:11.182Z,3.10
2022-08-12T01:59:40.346Z,3.33
2022-08-12T02:05:18.551Z,3.17
2022-08-12T02:10:51.914Z,2.92
2022-08-12T02:16:07.265Z,2.60
2022-08-12T02:21:21.284Z,2.80
2022-08-12T02:26:27.019Z,3.15
2022-08-12T02:31:31.864Z,2.78
2022-08-12T02:36:37.701Z,2.70
2022-08-12T02:41:46.204Z,2.28
2022-08-12T02:46:55.579Z,2.97
2022-08-12T02:52:00.449Z,2.95
2022-08-12T02:57:03.652Z,2.92
2022-08-12T03:02:13.312Z,2.75
2022-08-12T03:07:22.047Z,2.60
2022-08-12T03:12:34.205Z,3.22
2022-08-12T03:17:47.237Z,3.25
2022-08-12T03:23:29.022Z,3.45
2022-08-12T03:28:50.841Z,2.60
2022-08-12T03:34:01.549Z,2.78
2022-08-12T03:44:50.058Z,3.33
2022-08-12T03:50:13.970Z,2.97
2022-08-12T03:55:35.736Z,2.95
2022-08-12T04:00:38.840Z,2.85
2022-08-12T04:05:55.901Z,3.05
2022-08-12T04:11:18.503Z,3.00
2022-08-12T04:16:22.300Z,3.30
2022-08-12T04:21:26.798Z,3.03
2022-08-12T04:26:30.212Z,3.33
2022-08-12T04:31:34.522Z,2.97
2022-08-12T04:36:40.036Z,3.45
2022-08-12T04:41:56.057Z,3.13
2022-08-12T04:47:01.710Z,3.15
2022-08-12T04:52:06.467Z,3.63
2022-08-12T04:57:10.056Z,3.30
2022-08-12T05:02:16.667Z,3.15
2022-08-12T05:07:24.490Z,3.03
2022-08-12T05:12:30.491Z,3.65
2022-08-12T05:17:33.389Z,2.92
2022-08-12T05:22:39.973Z,3.25
2022-08-12T05:27:57.954Z,3.53
2022-08-12T05:33:06.640Z,3.30
2022-08-12T05:38:31.520Z,3.47
2022-08-12T05:43:34.767Z,3.30
2022-08-12T05:48:37.795Z,3.33
2022-08-12T05:53:42.959Z,2.85
2022-08-12T05:58:46.253Z,3.08
2022-08-12T06:03:51.187Z,3.33
2022-08-12T06:08:56.289Z,3.08
2022-08-12T06:13:59.439Z,3.00
2022-08-12T06:19:03.857Z,3.10
2022-08-12T06:24:09.021Z,2.95
2022-08-12T06:30:09.072Z,3.40
2022-08-12T06:35:25.222Z,3.03
2022-08-12T06:40:10.668Z,2.92
2022-08-12T06:45:13.523Z,2.90
2022-08-12T06:50:16.717Z,2.95
2022-08-12T06:55:26.019Z,3.20
2022-08-12T07:00:32.627Z,3.08
2022-08-12T07:05:36.338Z,2.75
2022-08-12T07:10:45.895Z,2.58
2022-08-12T07:15:48.861Z,2.88
2022-08-12T07:20:53.276Z,3.00
2022-08-12T07:25:59.410Z,2.63
2022-08-12T07:31:05.304Z,2.70
2022-08-12T07:36:10.960Z,2.70
2022-08-12T07:41:18.701Z,2.70
2022-08-12T07:46:24.317Z,2.88
2022-08-12T07:51:28.277Z,2.53
2022-08-12T07:56:33.016Z,2.70
2022-08-12T08:01:38.384Z,2.45
2022-08-12T08:06:45.244Z,2.50
2022-08-12T08:12:08.610Z,2.20
2022-08-12T08:17:11.741Z,2.33
2022-08-12T08:22:14.850Z,2.90
2022-08-12T08:27:19.361Z,2.78
2022-08-12T08:32:24.797Z,3.08
2022-08-12T08:37:32.878Z,2.63
2022-08-12T08:42:40.704Z,2.75
2022-08-12T08:47:45.082Z,3.00
2022-08-12T08:52:49.112Z,2.85
2022-08-12T08:57:55.348Z,2.28
2022-08-12T09:02:59.630Z,2.70
2022-08-12T09:08:14.274Z,2.42
2022-08-12T09:14:10.001Z,2.50
2022-08-12T09:18:53.210Z,2.47
2022-08-12T09:24:05.843Z,2.60
2022-08-12T09:29:11.975Z,2.50
2022-08-12T09:34:27.766Z,2.78
2022-08-12T09:40:06.480Z,2.58
2022-08-12T09:45:23.524Z,3.10
2022-08-12T09:50:28.349Z,2.88
2022-08-12T09:56:06.398Z,3.83
2022-08-12T10:01:14.736Z,3.40
2022-08-12T10:06:26.176Z,3.75
2022-08-12T10:12:09.689Z,3.60
2022-08-12T10:17:14.858Z,4.03
2022-08-12T10:22:39.157Z,4.15
2022-08-12T10:28:03.308Z,4.32
2022-08-12T10:33:18.112Z,4.68
2022-08-12T10:38:33.219Z,5.07
2022-08-12T10:43:55.055Z,4.97
2022-08-12T10:49:05.403Z,5.53
2022-08-12T10:54:13.634Z,4.72
2022-08-12T10:59:17.999Z,4.85
2022-08-12T11:04:49.684Z,4.75
2022-08-12T11:09:58.553Z,4.75
2022-08-12T11:15:14.741Z,4.97
2022-08-12T11:20:28.973Z,5.15
2022-08-12T11:25:56.763Z,5.00
2022-08-12T11:30:57.002Z,5.40
2022-08-12T11:36:16.479Z,5.75
2022-08-12T11:41:31.862Z,5.60
2022-08-12T11:46:37.323Z,5.82
2022-08-12T11:51:41.845Z,5.82
2022-08-12T11:56:52.406Z,6.18
2022-08-12T12:02:05.029Z,6.20
2022-08-12T12:07:11.465Z,5.90
2022-08-12T12:12:15.144Z,6.30
2022-08-12T12:17:18.466Z,6.32
2022-08-12T12:22:27.222Z,6.50
2022-08-12T12:28:06.054Z,5.93
2022-08-12T12:33:10.670Z,6.07
2022-08-12T12:38:25.204Z,6.15
2022-08-12T12:43:43.349Z,5.85
2022-08-12T12:48:47.876Z,5.85
2022-08-12T12:54:07.984Z,6.70
2022-08-12T12:59:54.662Z,6.88
2022-08-12T13:04:37.589Z,5.82
2022-08-12T13:09:46.735Z,5.90
2022-08-12T13:14:50.194Z,6.55
2022-08-12T13:19:55.837Z,6.22
2022-08-12T13:25:01.985Z,6.60
2022-08-12T13:30:11.652Z,6.20
2022-08-12T13:35:20.363Z,6.55
2022-08-12T13:40:40.949Z,6.30
2022-08-12T13:45:44.117Z,6.70
2022-08-12T13:50:47.635Z,6.80
2022-08-12T13:55:59.532Z,6.93
2022-08-12T14:01:08.592Z,6.72
2022-08-12T14:06:15.188Z,7.82
2022-08-12T14:11:25.379Z,7.35
2022-08-12T14:16:38.027Z,7.60
2022-08-12T14:21:59.578Z,7.07
2022-08-12T14:27:08.819Z,8.07
2022-08-12T14:32:16.510Z,7.15
2022-08-12T14:37:57.113Z,7.20
2022-08-12T14:42:47.598Z,7.30
2022-08-12T14:47:58.734Z,7.05
2022-08-12T14:58:27.271Z,7.40
2022-08-12T15:03:52.261Z,6.78
2022-08-12T15:08:55.058Z,7.85
2022-08-12T15:14:02.757Z,7.22
2022-08-12T15:19:12.734Z,7.78
2022-08-12T15:24:33.724Z,7.28
2022-08-12T15:29:41.816Z,7.90
2022-08-12T15:34:49.735Z,7.88
2022-08-12T15:40:01.087Z,7.40
2022-08-12T15:45:08.726Z,7.75
2022-08-12T15:50:11.768Z,8.95
2022-08-12T15:55:33.425Z,9.75
2022-08-12T16:00:39.942Z,10.27
2022-08-12T16:06:19.110Z,9.52
2022-08-12T16:11:14.816Z,6.97
2022-08-12T16:16:23.924Z,6.50
2022-08-12T16:21:51.848Z,7.10
2022-08-12T16:26:51.349Z,8.15
2022-08-12T16:31:59.767Z,7.22
2022-08-12T16:37:03.320Z,6.90
2022-08-12T16:42:06.735Z,7.35
2022-08-12T16:47:12.364Z,8.55
2022-08-12T16:52:18.746Z,9.15
2022-08-12T16:57:34.634Z,10.18
2022-08-12T17:02:40.585Z,10.00
2022-08-12T17:07:47.221Z,9.93
2022-08-12T17:12:55.109Z,9.13
2022-08-12T17:18:39.377Z,10.55
2022-08-12T17:23:47.982Z,9.95
2022-08-12T17:28:52.666Z,10.98
2022-08-12T17:33:58.568Z,10.60
2022-08-12T17:39:04.337Z,12.70
2022-08-12T17:44:12.481Z,11.32
2022-08-12T17:50:02.256Z,11.75
2022-08-12T17:54:44.532Z,10.85
2022-08-12T17:59:50.630Z,12.38
2022-08-12T18:05:09.532Z,13.00
2022-08-12T18:10:35.212Z,13.45
2022-08-12T18:16:05.532Z,12.43
2022-08-12T18:21:03.706Z,12.63
2022-08-12T18:26:23.023Z,15.50
2022-08-12T18:31:44.193Z,12.45
2022-08-12T18:36:54.067Z,14.70
2022-08-12T18:41:59.761Z,13.30
2022-08-12T18:47:04.994Z,13.75
2022-08-12T18:52:12.017Z,16.25
2022-08-12T18:57:45.930Z,15.20
2022-08-12T19:02:41.121Z,14.18
2022-08-12T19:08:01.304Z,13.77
2022-08-12T19:13:25.124Z,13.70
2022-08-12T19:18:31.359Z,16.65
2022-08-12T19:23:37.031Z,14.93
2022-08-12T19:28:40.801Z,16.70
2022-08-12T19:34:06.494Z,15.85
2022-08-12T19:39:15.379Z,16.77
2022-08-12T19:44:27.346Z,15.18
2022-08-12T19:49:30.972Z,17.05
2022-08-12T19:54:36.615Z,18.02
2022-08-12T19:59:43.538Z,20.58
2022-08-12T20:06:03.394Z,20.58
2022-08-12T20:10:36.291Z,23.52
2022-08-12T20:20:48.224Z,25.88
2022-08-12T20:26:01.874Z,28.33
2022-08-12T20:31:08.367Z,30.75
2022-08-12T20:36:41.363Z,31.90
2022-08-12T20:41:37.355Z,32.28
2022-08-12T20:46:40.411Z,31.70
2022-08-12T20:51:55.621Z,28.58
2022-08-12T20:57:09.640Z,26.42
2022-08-12T21:02:14.754Z,23.65
2022-08-12T21:07:23.537Z,23.05
2022-08-12T21:12:34.123Z,22.88
2022-08-12T21:18:00.567Z,21.45
2022-08-12T21:23:06.107Z,19.00
2022-08-12T21:28:10.663Z,19.10
2022-08-12T21:33:16.968Z,18.75
2022-08-12T21:38:20.243Z,17.15
2022-08-12T21:43:29.107Z,16.67
2022-08-12T21:48:49.257Z,16.77
2022-08-12T21:54:07.820Z,16.60
2022-08-12T21:59:15.870Z,15.07
2022-08-12T22:04:39.608Z,15.25
2022-08-12T22:09:43.877Z,13.48
2022-08-12T22:14:50.528Z,13.20
2022-08-12T22:19:53.614Z,12.23
2022-08-12T22:24:58.578Z,12.88
2022-08-12T22:30:21.915Z,11.13
2022-08-12T22:35:56.079Z,9.52
2022-08-12T22:41:00.689Z,11.85
2022-08-12T22:46:26.587Z,9.68
2022-08-12T22:52:00.236Z,10.63
2022-08-12T22:56:56.521Z,9.30
2022-08-12T23:02:02.458Z,8.68
2022-08-12T23:07:07.156Z,9.65
2022-08-12T23:12:10.556Z,9.32
2022-08-12T23:17:40.020Z,9.75
2022-08-12T23:23:02.911Z,9.73
2022-08-12T23:28:29.593Z,8.73
2022-08-12T23:34:01.409Z,8.88
2022-08-12T23:39:01.904Z,9.43
2022-08-12T23:44:06.958Z,10.40
2022-08-12T23:49:55.410Z,9.68
2022-08-12T23:54:44.091Z,9.00
2022-08-12T23:59:55.436Z,9.32
